首页
METAR-TAF:

METAR-TAF

机场 :

诺曼·曼利国际机场

京斯敦, 牙买加

纬度: 17-56N, 经度: 076-47W, 海拔: 3米

当前天气观测

该预报发布于33分钟前的19:00 UTC
风速10节,风向北转西北
温度 28°C
湿度 74%
气压 1013 hPa
能见度10公里或以上
少量云层高于1400英尺
散云层高于2200英尺, 积雨云.
多云层高于3400英尺

METAR: MKJP 231900Z 34010KT 9999 FEW014 SCT022CB BKN034 28/23 Q1013

时间: 14:33 (19:33 UTC)

预报

该预报发布于2小时和18分钟前的17:15 UTC
预报有效从23日的 18点(UTC)到 24日的 18点(UTC)
风速10节,风向南转南东
能见度10公里或以上
少量云层高于2000英尺
散云层高于2200英尺, 积雨云.
多云层高于3400英尺
短暂存在
从 23日的 18点(UTC)到 23日的 21点(UTC)
能見度: 8000
多云层高于1800英尺, 积雨云.
雷暴, 雨
成为
从 24日的 01点(UTC)到 24日的 03点(UTC)
风速5节,风向

TAF: MKJP 231715Z 2318/2418 15010KT 9999 FEW020 SCT022CB BKN034 TEMPO 2318/2321 8000 TSRA BKN018CB BECMG 2401/2403 35005KT

超过4000个机场的气象观测和天气预报(METAR&TAF报告)。

可查询的气象台以黄色和红色小点在地图上表示。

将鼠标移到小点上方,可查看气象台名称。

然后点击查看天气观测和预报。

如需切换地图:点击带黑十字的绿色按钮放大地图;点击带横线的绿色按钮缩小地图;或者点击绿色箭头查看邻近地区的地图。


METAR-TAF: